createdAt,value
2019-05-12T00:01:38.778Z,3.83
2019-05-12T00:04:08.088Z,3.50
2019-05-12T00:06:35.592Z,3.20
2019-05-12T00:09:04.211Z,3.25
2019-05-12T00:11:32.036Z,3.75
2019-05-12T00:13:59.882Z,2.90
2019-05-12T00:16:28.308Z,3.20
2019-05-12T00:18:58.450Z,3.65
2019-05-12T00:21:28.147Z,3.65
2019-05-12T00:24:13.621Z,3.27
2019-05-12T00:26:42.074Z,3.15
2019-05-12T00:29:09.972Z,3.10
2019-05-12T00:31:38.302Z,3.17
2019-05-12T00:34:07.789Z,2.80
2019-05-12T00:36:37.799Z,3.40
2019-05-12T00:39:08.603Z,4.03
2019-05-12T00:41:38.655Z,3.65
2019-05-12T00:44:05.990Z,3.72
2019-05-12T00:46:33.786Z,3.50
2019-05-12T00:49:01.615Z,3.58
2019-05-12T00:51:29.469Z,3.25
2019-05-12T00:53:58.050Z,4.00
2019-05-12T00:56:27.909Z,3.00
2019-05-12T00:58:57.902Z,3.87
2019-05-12T01:01:25.089Z,3.95
2019-05-12T01:03:52.930Z,3.25
2019-05-12T01:06:20.739Z,3.75
2019-05-12T01:08:48.607Z,3.25
2019-05-12T01:11:17.804Z,3.60
2019-05-12T01:13:45.753Z,4.60
2019-05-12T01:16:13.560Z,3.50
2019-05-12T01:18:41.386Z,4.22
2019-05-12T01:21:09.246Z,3.65
2019-05-12T01:23:53.417Z,3.60
2019-05-12T01:26:08.664Z,3.95
2019-05-12T01:28:38.169Z,4.10
2019-05-12T01:31:08.581Z,5.10
2019-05-12T01:33:38.093Z,4.40
2019-05-12T01:36:07.981Z,4.05
2019-05-12T01:38:37.783Z,3.85
2019-05-12T01:41:05.312Z,4.30
2019-05-12T01:43:33.115Z,4.03
2019-05-12T01:46:00.937Z,3.87
2019-05-12T01:48:28.959Z,4.28
2019-05-12T01:50:57.984Z,3.80
2019-05-12T01:53:25.963Z,3.90
2019-05-12T01:55:53.909Z,3.30
2019-05-12T01:58:21.742Z,4.05
2019-05-12T02:00:49.705Z,3.40
2019-05-12T02:03:17.936Z,3.42
2019-05-12T02:05:48.678Z,4.42
2019-05-12T02:08:21.953Z,3.87
2019-05-12T02:10:52.279Z,4.00
2019-05-12T02:13:20.289Z,3.50
2019-05-12T02:15:48.609Z,4.80
2019-05-12T02:18:17.834Z,4.83
2019-05-12T02:20:48.166Z,4.15
2019-05-12T02:23:15.394Z,4.40
2019-05-12T02:25:43.234Z,4.70
2019-05-12T02:28:11.081Z,5.42
2019-05-12T02:30:41.528Z,4.70
2019-05-12T02:33:08.428Z,4.17
2019-05-12T02:35:36.281Z,4.03
2019-05-12T02:38:04.970Z,4.30
2019-05-12T02:40:34.736Z,4.90
2019-05-12T02:43:05.297Z,4.30
2019-05-12T02:45:35.142Z,4.80
2019-05-12T02:48:04.792Z,4.28
2019-05-12T02:50:36.215Z,5.15
2019-05-12T02:53:05.361Z,4.95
2019-05-12T02:55:34.830Z,4.15
2019-05-12T02:58:05.005Z,4.90
2019-05-12T03:00:35.318Z,4.30
2019-05-12T03:03:05.438Z,3.95
2019-05-12T03:05:35.182Z,4.70
2019-05-12T03:08:04.933Z,4.45
2019-05-12T03:10:35.427Z,4.50
2019-05-12T03:13:04.280Z,4.75
2019-05-12T03:15:35.861Z,4.50
2019-05-12T03:18:05.586Z,3.98
2019-05-12T03:20:34.708Z,4.40
2019-05-12T03:23:05.177Z,3.95
2019-05-12T03:25:31.177Z,5.65
2019-05-12T03:27:58.995Z,4.58
2019-05-12T03:30:29.223Z,4.35
2019-05-12T03:32:58.278Z,3.83
2019-05-12T03:35:32.724Z,4.80
2019-05-12T03:37:55.530Z,3.92
2019-05-12T03:40:24.871Z,4.45
2019-05-12T03:42:54.898Z,4.50
2019-05-12T03:45:24.870Z,5.97
2019-05-12T03:47:54.780Z,5.25
2019-05-12T03:50:24.251Z,6.12
2019-05-12T03:52:51.198Z,5.70
2019-05-12T03:55:31.804Z,5.87
2019-05-12T03:57:48.757Z,5.62
2019-05-12T04:00:16.687Z,6.47
2019-05-12T04:02:45.369Z,6.05
2019-05-12T04:05:15.638Z,5.75
2019-05-12T04:07:45.002Z,6.12
2019-05-12T04:10:15.545Z,5.45
2019-05-12T04:12:44.802Z,5.80
2019-05-12T04:15:15.132Z,5.80
2019-05-12T04:17:45.291Z,6.78
2019-05-12T04:20:15.186Z,5.90
2019-05-12T04:22:44.681Z,6.50
2019-05-12T04:25:14.554Z,6.33
2019-05-12T04:27:44.829Z,5.83
2019-05-12T04:30:14.435Z,7.15
2019-05-12T04:32:44.822Z,7.53
2019-05-12T04:35:11.069Z,6.60
2019-05-12T04:37:38.903Z,7.17
2019-05-12T04:40:07.121Z,7.15
2019-05-12T04:42:35.267Z,6.10
2019-05-12T04:45:04.483Z,7.33
2019-05-12T04:47:34.931Z,6.55
2019-05-12T04:50:05.274Z,6.10
2019-05-12T04:52:34.919Z,6.25
2019-05-12T04:55:04.488Z,5.45
2019-05-12T04:57:34.327Z,6.30
2019-05-12T05:00:00.438Z,5.67
2019-05-12T05:02:28.350Z,6.25
2019-05-12T05:04:56.934Z,5.70
2019-05-12T05:07:24.776Z,5.22
2019-05-12T05:09:54.910Z,5.15
2019-05-12T05:12:23.958Z,4.90
2019-05-12T05:14:54.649Z,5.22
2019-05-12T05:17:24.194Z,4.75
2019-05-12T05:19:50.901Z,6.20
2019-05-12T05:22:19.226Z,4.83
2019-05-12T05:24:47.050Z,5.10
2019-05-12T05:27:15.034Z,4.70
2019-05-12T05:29:43.772Z,4.92
2019-05-12T05:32:13.910Z,5.25
2019-05-12T05:34:45.960Z,4.90
2019-05-12T05:37:10.824Z,4.12
2019-05-12T05:39:47.539Z,4.75
2019-05-12T05:42:08.233Z,5.15
2019-05-12T05:44:38.034Z,4.62
2019-05-12T05:47:05.610Z,4.47
2019-05-12T05:49:34.093Z,5.30
2019-05-12T05:52:03.526Z,5.92
2019-05-12T05:54:35.685Z,4.08
2019-05-12T05:57:03.070Z,4.75
2019-05-12T05:59:31.960Z,4.83
2019-05-12T06:02:00.187Z,3.95
2019-05-12T06:04:28.013Z,4.83
2019-05-12T06:06:57.329Z,5.20
2019-05-12T06:09:25.236Z,5.25
2019-05-12T06:11:54.148Z,5.55
2019-05-12T06:14:23.583Z,4.47
2019-05-12T06:16:53.774Z,4.40
2019-05-12T06:19:25.561Z,4.40
2019-05-12T06:21:53.306Z,4.00
2019-05-12T06:24:20.454Z,4.30
2019-05-12T06:26:59.975Z,3.95
2019-05-12T06:29:20.453Z,5.28
2019-05-12T06:31:47.394Z,4.12
2019-05-12T06:34:20.887Z,4.40
2019-05-12T06:36:44.877Z,3.50
2019-05-12T06:39:18.684Z,3.20
2019-05-12T06:41:44.385Z,2.92
2019-05-12T06:44:14.877Z,3.20
2019-05-12T06:46:41.469Z,3.17
2019-05-12T06:49:13.502Z,3.62
2019-05-12T06:51:38.930Z,4.25
2019-05-12T06:54:11.834Z,3.87
2019-05-12T06:56:36.394Z,3.08
2019-05-12T06:59:09.915Z,3.47
2019-05-12T07:01:34.149Z,3.30
2019-05-12T07:04:08.258Z,3.42
2019-05-12T07:06:33.751Z,2.75
2019-05-12T07:09:08.537Z,2.50
2019-05-12T07:11:41.572Z,2.75
2019-05-12T07:14:05.268Z,3.10
2019-05-12T07:16:30.469Z,2.60
2019-05-12T07:18:58.414Z,2.60
2019-05-12T07:21:27.345Z,2.55
2019-05-12T07:23:55.450Z,3.00
2019-05-12T07:26:23.620Z,2.20
2019-05-12T07:28:53.924Z,2.83
2019-05-12T07:31:23.322Z,2.47
2019-05-12T07:33:54.024Z,2.15
2019-05-12T07:36:21.239Z,2.30
2019-05-12T07:38:49.178Z,2.25
2019-05-12T07:41:18.131Z,2.00
2019-05-12T07:43:50.689Z,2.20
2019-05-12T07:46:17.035Z,2.17
2019-05-12T07:48:46.514Z,1.90
2019-05-12T07:51:14.743Z,2.30
2019-05-12T07:53:46.933Z,2.67
2019-05-12T07:56:14.321Z,2.02
2019-05-12T07:58:47.038Z,2.30
2019-05-12T08:01:11.313Z,1.85
2019-05-12T08:03:39.442Z,2.30
2019-05-12T08:06:07.291Z,2.20
2019-05-12T08:08:35.165Z,1.70
2019-05-12T08:11:04.504Z,2.62
2019-05-12T08:13:37.875Z,2.10
2019-05-12T08:16:03.683Z,2.10
2019-05-12T08:18:36.989Z,2.33
2019-05-12T08:21:03.559Z,2.08
2019-05-12T08:23:30.944Z,2.40
2019-05-12T08:26:03.675Z,1.70
2019-05-12T08:28:36.195Z,1.98
2019-05-12T08:30:57.967Z,1.75
2019-05-12T08:33:26.241Z,2.72
2019-05-12T08:35:55.344Z,1.50
2019-05-12T08:38:24.901Z,2.00
2019-05-12T08:40:54.264Z,2.37
2019-05-12T08:43:24.071Z,1.85
2019-05-12T08:45:53.679Z,2.15
2019-05-12T08:48:24.805Z,1.90
2019-05-12T08:50:51.402Z,2.20
2019-05-12T08:53:20.898Z,1.90
2019-05-12T08:55:48.877Z,2.00
2019-05-12T08:58:30.371Z,2.05
2019-05-12T09:00:50.115Z,2.10
2019-05-12T09:03:20.421Z,1.95
2019-05-12T09:05:45.614Z,1.90
2019-05-12T09:08:13.911Z,2.10
2019-05-12T09:10:41.851Z,1.98
2019-05-12T09:13:09.786Z,1.47
2019-05-12T09:15:37.678Z,1.87
2019-05-12T09:18:05.679Z,2.05
2019-05-12T09:20:33.925Z,1.90
2019-05-12T09:23:02.749Z,1.42
2019-05-12T09:25:31.351Z,1.80
2019-05-12T09:27:59.170Z,1.52
2019-05-12T09:30:29.177Z,1.60
2019-05-12T09:32:57.114Z,1.62
2019-05-12T09:35:28.623Z,1.75
2019-05-12T09:37:54.544Z,1.75
2019-05-12T09:40:24.669Z,1.82
2019-05-12T09:42:53.329Z,1.75
2019-05-12T09:45:21.616Z,1.50
2019-05-12T09:47:49.453Z,1.45
2019-05-12T09:50:20.261Z,1.70
2019-05-12T09:52:50.177Z,1.70
2019-05-12T09:55:16.497Z,1.52
2019-05-12T09:57:45.127Z,1.50
2019-05-12T10:00:13.796Z,1.40
2019-05-12T10:02:43.625Z,1.32
2019-05-12T10:05:11.454Z,1.30
2019-05-12T10:07:39.283Z,1.70
2019-05-12T10:10:07.318Z,1.80
2019-05-12T10:12:36.620Z,1.90
2019-05-12T10:15:05.454Z,1.72
2019-05-12T10:17:34.025Z,1.90
2019-05-12T10:20:02.126Z,1.85
2019-05-12T10:22:40.005Z,1.35
2019-05-12T10:25:07.526Z,1.52
2019-05-12T10:27:35.562Z,1.65
2019-05-12T10:30:11.980Z,1.95
2019-05-12T10:32:34.274Z,2.40
2019-05-12T10:35:02.278Z,1.57
2019-05-12T10:37:30.258Z,1.67
2019-05-12T10:39:58.107Z,1.42
2019-05-12T10:42:25.976Z,1.60
2019-05-12T10:44:56.555Z,1.60
2019-05-12T10:47:23.981Z,1.40
2019-05-12T10:49:53.735Z,1.90
2019-05-12T10:52:21.604Z,1.90
2019-05-12T10:54:49.430Z,1.65
2019-05-12T10:57:17.304Z,1.70
2019-05-12T10:59:48.635Z,1.37
2019-05-12T11:02:14.788Z,1.67
2019-05-12T11:04:43.991Z,1.60
2019-05-12T11:07:13.575Z,1.98
2019-05-12T11:09:43.555Z,1.85
2019-05-12T11:12:13.655Z,1.80
2019-05-12T11:14:40.794Z,1.90
2019-05-12T11:17:09.712Z,1.70
2019-05-12T11:19:40.816Z,1.50
2019-05-12T11:22:07.481Z,1.60
2019-05-12T11:24:35.386Z,1.50
2019-05-12T11:27:04.107Z,1.50
2019-05-12T11:29:45.550Z,1.40
2019-05-12T11:32:01.714Z,1.52
2019-05-12T11:34:29.613Z,2.52
2019-05-12T11:36:57.429Z,2.15
2019-05-12T11:39:25.353Z,1.37
2019-05-12T11:41:55.353Z,1.65
2019-05-12T11:44:23.273Z,1.45
2019-05-12T11:46:51.271Z,1.35
2019-05-12T11:49:21.789Z,1.87
2019-05-12T11:51:48.751Z,1.47
2019-05-12T11:54:16.762Z,1.55
2019-05-12T11:56:46.454Z,1.70
2019-05-12T11:59:14.195Z,1.67
2019-05-12T12:01:47.463Z,1.72
2019-05-12T12:04:14.210Z,1.47
2019-05-12T12:06:43.705Z,1.30
2019-05-12T12:09:15.267Z,1.72
2019-05-12T12:11:43.253Z,1.35
2019-05-12T12:14:10.773Z,1.75
2019-05-12T12:16:42.004Z,1.50
2019-05-12T12:19:08.271Z,1.57
2019-05-12T12:21:40.530Z,1.50
2019-05-12T12:24:05.677Z,1.80
2019-05-12T12:26:36.552Z,1.30
2019-05-12T12:29:03.455Z,1.75
2019-05-12T12:31:48.186Z,1.47
2019-05-12T12:34:23.970Z,1.40
2019-05-12T12:36:45.856Z,1.55
2019-05-12T12:39:13.738Z,1.60
2019-05-12T12:41:43.649Z,1.40
2019-05-12T12:44:13.497Z,1.20
2019-05-12T12:46:40.806Z,2.55
2019-05-12T12:49:10.365Z,2.00
2019-05-12T12:51:38.272Z,1.50
2019-05-12T12:54:06.124Z,1.77
2019-05-12T12:56:34.172Z,1.62
2019-05-12T12:59:10.164Z,1.40
2019-05-12T13:01:33.553Z,1.50
2019-05-12T13:04:04.571Z,1.65
2019-05-12T13:06:30.819Z,1.60
2019-05-12T13:08:58.707Z,1.40
2019-05-12T13:11:33.061Z,2.37
2019-05-12T13:13:56.608Z,1.75
2019-05-12T13:16:24.463Z,2.30
2019-05-12T13:18:53.820Z,3.00
2019-05-12T13:21:22.019Z,4.20
2019-05-12T13:23:51.168Z,5.53
2019-05-12T13:26:19.143Z,1.98
2019-05-12T13:28:53.159Z,1.70
2019-05-12T13:31:16.958Z,3.55
2019-05-12T13:33:49.518Z,3.87
2019-05-12T13:36:14.414Z,4.85
2019-05-12T13:38:44.170Z,2.25
2019-05-12T13:41:15.917Z,3.10
2019-05-12T13:43:41.430Z,1.40
2019-05-12T13:46:09.270Z,1.12
2019-05-12T13:48:38.257Z,1.50
2019-05-12T13:51:12.319Z,1.50
2019-05-12T13:53:40.311Z,1.45
2019-05-12T13:56:05.289Z,1.65
2019-05-12T13:58:38.728Z,3.35
2019-05-12T14:01:13.543Z,1.55
2019-05-12T14:03:33.584Z,1.70
2019-05-12T14:06:03.551Z,1.80
2019-05-12T14:08:31.166Z,1.80
2019-05-12T14:10:59.862Z,1.70
2019-05-12T14:13:28.011Z,1.40
2019-05-12T14:15:55.879Z,1.45
2019-05-12T14:18:24.049Z,1.30
2019-05-12T14:20:58.420Z,1.50
2019-05-12T14:23:23.788Z,1.57
2019-05-12T14:25:54.084Z,1.30
2019-05-12T14:28:23.346Z,1.20
2019-05-12T14:30:52.169Z,1.20
2019-05-12T14:33:20.885Z,1.40
2019-05-12T14:35:48.888Z,1.10
2019-05-12T14:38:19.348Z,1.50
2019-05-12T14:40:46.366Z,1.27
2019-05-12T14:43:16.743Z,1.30
2019-05-12T14:45:44.125Z,1.20
2019-05-12T14:48:13.747Z,1.27
2019-05-12T14:50:43.990Z,1.40
2019-05-12T14:53:11.227Z,1.12
2019-05-12T14:55:39.434Z,1.40
2019-05-12T14:58:09.362Z,1.70
2019-05-12T15:00:36.896Z,1.67
2019-05-12T15:03:12.364Z,1.30
2019-05-12T15:05:34.294Z,1.40
2019-05-12T15:08:04.297Z,1.50
2019-05-12T15:10:33.665Z,1.22
2019-05-12T15:13:03.415Z,1.50
2019-05-12T15:15:30.934Z,1.77
2019-05-12T15:18:03.105Z,1.62
2019-05-12T15:20:28.490Z,1.60
2019-05-12T15:22:56.656Z,1.30
2019-05-12T15:25:29.476Z,1.17
2019-05-12T15:27:54.361Z,1.35
2019-05-12T15:30:26.174Z,1.30
2019-05-12T15:32:53.596Z,1.35
2019-05-12T15:35:23.963Z,1.47
2019-05-12T15:37:54.437Z,1.55
2019-05-12T15:40:20.864Z,1.50
2019-05-12T15:42:48.711Z,1.70
2019-05-12T15:45:17.101Z,1.30
2019-05-12T15:47:45.279Z,1.80
2019-05-12T15:50:14.571Z,1.40
2019-05-12T15:52:45.734Z,1.40
2019-05-12T15:55:13.689Z,1.50
2019-05-12T15:57:43.837Z,1.30
2019-05-12T16:00:13.874Z,1.60
2019-05-12T16:02:41.278Z,1.25
2019-05-12T16:05:09.171Z,1.25
2019-05-12T16:07:39.599Z,1.55
2019-05-12T16:10:07.218Z,1.22
2019-05-12T16:12:35.125Z,1.37
2019-05-12T16:15:04.528Z,2.22
2019-05-12T16:17:34.209Z,1.60
2019-05-12T16:20:03.661Z,1.35
2019-05-12T16:22:38.831Z,1.30
2019-05-12T16:25:04.111Z,1.30
2019-05-12T16:27:33.904Z,1.30
2019-05-12T16:30:04.710Z,1.32
2019-05-12T16:32:42.190Z,1.17
2019-05-12T16:35:07.170Z,1.25
2019-05-12T16:37:35.155Z,1.30
2019-05-12T16:40:04.323Z,1.17
2019-05-12T16:42:33.478Z,1.30
2019-05-12T16:45:06.013Z,1.40
2019-05-12T16:47:33.164Z,1.30
2019-05-12T16:50:00.354Z,1.40
2019-05-12T16:52:32.520Z,1.80
2019-05-12T16:54:57.919Z,1.30
2019-05-12T16:57:25.841Z,1.30
2019-05-12T17:00:02.371Z,1.30
2019-05-12T17:02:24.783Z,1.30
2019-05-12T17:04:54.011Z,1.50
2019-05-12T17:07:26.699Z,1.30
2019-05-12T17:09:54.271Z,1.25
2019-05-12T17:12:23.933Z,1.90
2019-05-12T17:14:53.153Z,1.40
2019-05-12T17:17:21.190Z,1.50
2019-05-12T17:19:49.395Z,1.42
2019-05-12T17:22:17.677Z,1.50
2019-05-12T17:24:46.018Z,1.10
2019-05-12T17:27:15.888Z,1.40
2019-05-12T17:29:43.619Z,1.70
2019-05-12T17:32:13.465Z,1.47
2019-05-12T17:34:45.859Z,1.25
2019-05-12T17:37:10.990Z,1.30
2019-05-12T17:39:39.300Z,1.52
2019-05-12T17:42:14.844Z,1.20
2019-05-12T17:44:39.211Z,1.45
2019-05-12T17:47:07.205Z,1.35
2019-05-12T17:49:35.152Z,1.47
2019-05-12T17:52:12.321Z,1.30
2019-05-12T17:54:34.135Z,1.40
2019-05-12T17:57:03.974Z,1.40
2019-05-12T17:59:33.323Z,1.55
2019-05-12T18:02:05.705Z,1.75
2019-05-12T18:04:33.219Z,1.85
2019-05-12T18:07:04.330Z,1.40
2019-05-12T18:09:30.691Z,2.25
2019-05-12T18:12:00.859Z,1.70
2019-05-12T18:14:31.104Z,1.40
2019-05-12T18:17:02.933Z,1.72
2019-05-12T18:19:28.514Z,1.37
2019-05-12T18:22:03.239Z,1.50
2019-05-12T18:24:27.130Z,1.27
2019-05-12T18:27:03.874Z,1.70
2019-05-12T18:29:25.251Z,1.52
2019-05-12T18:31:55.527Z,1.72
2019-05-12T18:34:25.124Z,1.30
2019-05-12T18:36:57.878Z,1.45
2019-05-12T18:39:28.076Z,1.42
2019-05-12T18:41:57.416Z,1.45
2019-05-12T18:44:31.299Z,1.20
2019-05-12T18:46:56.852Z,1.50
2019-05-12T18:49:26.381Z,1.70
2019-05-12T18:51:55.199Z,1.40
2019-05-12T18:54:24.384Z,1.55
2019-05-12T18:57:01.883Z,1.20
2019-05-12T18:59:22.106Z,1.70
2019-05-12T19:01:50.420Z,1.57
2019-05-12T19:04:19.837Z,1.65
2019-05-12T19:06:47.865Z,1.70
2019-05-12T19:09:23.779Z,1.30
2019-05-12T19:11:46.757Z,1.37
2019-05-12T19:14:16.228Z,1.35
2019-05-12T19:16:47.192Z,1.40
2019-05-12T19:19:19.603Z,1.35
2019-05-12T19:22:09.430Z,2.00
2019-05-12T19:25:24.014Z,1.00
2019-05-12T19:28:01.991Z,1.42
2019-05-12T19:30:25.376Z,1.50
2019-05-12T19:32:52.481Z,1.45
2019-05-12T19:35:24.383Z,1.50
2019-05-12T19:37:53.839Z,1.40
2019-05-12T19:40:22.269Z,1.60
2019-05-12T19:42:53.804Z,1.37
2019-05-12T19:45:22.011Z,1.32
2019-05-12T19:47:53.531Z,1.20
2019-05-12T19:50:22.882Z,1.35
2019-05-12T19:52:50.878Z,1.60
2019-05-12T19:55:20.246Z,1.20
2019-05-12T19:57:50.160Z,1.30
2019-05-12T20:00:18.502Z,1.70
2019-05-12T20:02:47.120Z,1.70
2019-05-12T20:05:17.650Z,1.65
2019-05-12T20:07:44.869Z,1.40
2019-05-12T20:10:16.632Z,1.45
2019-05-12T20:12:48.944Z,1.27
2019-05-12T20:15:17.220Z,1.50
2019-05-12T20:17:48.532Z,1.40
2019-05-12T20:20:17.834Z,1.42
2019-05-12T20:22:49.407Z,1.40
2019-05-12T20:25:17.363Z,1.67
2019-05-12T20:27:45.517Z,1.52
2019-05-12T20:30:20.455Z,1.85
2019-05-12T20:32:45.215Z,1.25
2019-05-12T20:35:14.602Z,1.70
2019-05-12T20:37:44.277Z,1.62
2019-05-12T20:40:13.608Z,2.00
2019-05-12T20:42:55.616Z,1.50
2019-05-12T20:45:13.388Z,1.52
2019-05-12T20:47:45.146Z,1.60
2019-05-12T20:50:14.724Z,1.30
2019-05-12T20:52:46.419Z,1.32
2019-05-12T20:55:14.232Z,1.95
2019-05-12T20:57:50.299Z,1.60
2019-05-12T21:00:11.199Z,1.50
2019-05-12T21:02:40.393Z,1.70
2019-05-12T21:05:14.949Z,1.70
2019-05-12T21:07:39.414Z,1.42
2019-05-12T21:10:11.398Z,3.20
2019-05-12T21:12:44.719Z,1.50
2019-05-12T21:15:16.469Z,1.57
2019-05-12T21:17:43.581Z,1.40
2019-05-12T21:20:14.369Z,1.45
2019-05-12T21:22:40.749Z,1.90
2019-05-12T21:25:11.077Z,1.60
2019-05-12T21:27:38.956Z,1.70
2019-05-12T21:30:11.563Z,1.92
2019-05-12T21:32:36.712Z,1.87
2019-05-12T21:35:18.428Z,1.90
2019-05-12T21:37:37.084Z,1.70
2019-05-12T21:40:06.241Z,1.65
2019-05-12T21:42:36.434Z,1.67
2019-05-12T21:45:04.885Z,2.00
2019-05-12T21:47:36.368Z,1.50
2019-05-12T21:50:05.008Z,1.75
2019-05-12T21:52:37.246Z,1.60
2019-05-12T21:55:06.477Z,1.90
2019-05-12T21:57:35.057Z,2.25
2019-05-12T22:00:10.737Z,2.40
2019-05-12T22:02:34.963Z,1.87
2019-05-12T22:05:04.300Z,1.80
2019-05-12T22:07:39.797Z,1.95
2019-05-12T22:10:07.708Z,1.67
2019-05-12T22:12:35.684Z,2.33
2019-05-12T22:15:03.894Z,4.37
2019-05-12T22:17:50.909Z,2.50
2019-05-12T22:20:19.929Z,2.72
2019-05-12T22:22:50.706Z,2.60
2019-05-12T22:25:20.972Z,2.95
2019-05-12T22:27:48.896Z,3.12
2019-05-12T22:30:17.975Z,3.85
2019-05-12T22:32:45.879Z,3.27
2019-05-12T22:35:21.664Z,3.27
2019-05-12T22:37:45.123Z,3.40
2019-05-12T22:40:19.284Z,3.33
2019-05-12T22:42:50.616Z,2.83
2019-05-12T22:45:17.213Z,2.20
2019-05-12T22:47:49.235Z,1.80
2019-05-12T22:50:14.883Z,2.10
2019-05-12T22:52:45.167Z,2.00
2019-05-12T22:55:14.664Z,1.95
2019-05-12T22:57:43.548Z,2.65
2019-05-12T23:00:13.571Z,1.67
2019-05-12T23:02:44.472Z,1.82
2019-05-12T23:05:19.034Z,1.90
2019-05-12T23:07:41.286Z,2.08
2019-05-12T23:10:13.692Z,1.90
2019-05-12T23:12:40.682Z,2.45
2019-05-12T23:15:08.867Z,2.05
2019-05-12T23:17:44.186Z,2.35
2019-05-12T23:20:10.995Z,1.70
2019-05-12T23:22:39.858Z,1.80
2019-05-12T23:25:11.387Z,1.70
2019-05-12T23:27:38.846Z,2.00
2019-05-12T23:30:10.893Z,1.45
2019-05-12T23:32:45.367Z,1.80
2019-05-12T23:35:08.209Z,2.42
2019-05-12T23:37:40.098Z,1.92
2019-05-12T23:40:11.518Z,1.90
2019-05-12T23:42:36.122Z,1.95
2019-05-12T23:45:05.823Z,1.75
2019-05-12T23:47:34.420Z,2.30
2019-05-12T23:50:04.062Z,2.08
2019-05-12T23:52:34.742Z,1.98
2019-05-12T23:55:02.613Z,2.40
2019-05-12T23:57:33.830Z,2.12
